Columbia — WDD6400 — position and weather

sailwx.info

Track history (hours):
 
Tides and Currents Weather Stations Pressure Air Temp Water Temp Dewpoint Dewpoint Depression Visibility Wind Speed Wind Dir Waves Ship Positions

Columbia

Owner: OSG Ship Management Inc., Tampa, FL. More information available from US FCC via Universal Licensing System and Coast Guard Vessel Documentation Center.

Last reported at 2016-Sep-25 00:33 UTC. Time now 2016-Sep-27 10:28 UTC.
Position N 30°07' W 093°20'.

Length 194 m; draft 5.9 m.

Type: Towing. MMSI: 367172440.

Date/timePositionNaut miles runAvg speedWind from/ knotsBaromVisibWave heightAir tempDewpointWater temp
2016-Sep-25 00:33N 30°07' W 093°20'4 1.8
2016-Sep-24 22:31N 30°11' W 093°19'0 0.0
2016-Sep-24 21:31N 30°11' W 093°19'0 0.0
2016-Sep-24 19:31N 30°11' W 093°19'0 0.0
2016-Sep-24 18:31N 30°11' W 093°19'0 0.0
2016-Sep-24 17:31N 30°11' W 093°19'0 0.0
2016-Sep-24 16:31N 30°11' W 093°19'0 0.0
2016-Sep-24 14:31N 30°11' W 093°19'0 0.0
2016-Sep-24 12:31N 30°11' W 093°19'0 0.0
2016-Sep-24 10:31N 30°11' W 093°19'0 0.0
2016-Sep-24 09:31N 30°11' W 093°19'0 0.0
2016-Sep-24 03:31N 30°11' W 093°19'0 0.0
2016-Sep-24 02:31N 30°11' W 093°19'0 0.0
2016-Sep-24 01:31N 30°11' W 093°19'0 0.0
2016-Sep-24 00:31N 30°11' W 093°19'0 0.0
2016-Sep-23 19:33N 30°11' W 093°19'0 0.0
2016-Sep-23 17:33N 30°11' W 093°19'0 0.0
2016-Sep-23 16:33N 30°11' W 093°19'0 0.0
2016-Sep-23 15:33N 30°11' W 093°19'0 0.0
2016-Sep-23 13:30N 30°11' W 093°19'0 0.0
2016-Sep-23 09:33N 30°11' W 093°19'0 0.0
2016-Sep-23 06:33N 30°11' W 093°19'0 0.0
2016-Sep-23 04:33N 30°11' W 093°19'0 0.0
2016-Sep-23 03:33N 30°11' W 093°19'0 0.0
2016-Sep-23 02:33N 30°11' W 093°19'0 0.0
2016-Sep-23 01:33N 30°11' W 093°19'0 0.0
2016-Sep-23 00:30N 30°11' W 093°19'0 0.0
2016-Sep-22 23:33N 30°11' W 093°19'0 0.0
2016-Sep-22 20:33N 30°11' W 093°19'0 0.0
2016-Sep-22 12:30N 30°11' W 093°19'0 0.1
2016-Sep-22 04:33N 30°10' W 093°19'6 5.7
2016-Sep-22 03:33N 30°04' W 093°20'26 1.4
2016-Sep-21 09:33N 29°39' W 093°17'0 0.0
2016-Sep-21 08:33N 29°39' W 093°17'  
2016-Sep-18 01:29N 27°45' W 082°31'8 9.1
2016-Sep-18 00:34N 27°53' W 082°26'4 1.8
2016-Sep-17 22:34N 27°56' W 082°27'0 0.0
2016-Sep-17 21:34N 27°56' W 082°27'0 0.0
2016-Sep-17 20:33N 27°56' W 082°27'0 0.0
2016-Sep-17 19:16N 27°56' W 082°27'0 0.0
2016-Sep-17 13:34N 27°56' W 082°27'1 1.1
2016-Sep-17 12:34N 27°55' W 082°27'0 0.0
2016-Sep-17 10:34N 27°55' W 082°27'0 0.0
2016-Sep-17 09:34N 27°55' W 082°27'0 0.0
2016-Sep-17 08:34N 27°55' W 082°27'0 0.0
2016-Sep-17 07:34N 27°55' W 082°27'0 0.0
2016-Sep-17 05:34N 27°55' W 082°27'0 0.0
2016-Sep-17 04:34N 27°55' W 082°27'0 0.0
2016-Sep-17 00:34N 27°55' W 082°27'0 0.1
2016-Sep-16 17:33N 27°55' W 082°27'1 0.5
2016-Sep-16 15:34N 27°56' W 082°27'0 0.0
2016-Sep-16 12:34N 27°56' W 082°27'0 0.0
2016-Sep-16 09:33N 27°56' W 082°27'0 0.0
2016-Sep-16 07:34N 27°56' W 082°27'0 0.0
2016-Sep-16 03:34N 27°56' W 082°27'0 0.0
2016-Sep-16 02:34N 27°56' W 082°27'0 0.0
2016-Sep-16 00:33N 27°56' W 082°27'0 0.0
2016-Sep-15 22:34N 27°56' W 082°27'0 0.0
2016-Sep-15 21:34N 27°56' W 082°27'0 0.0
2016-Sep-15 20:34N 27°56' W 082°27'0 0.2
2016-Sep-15 18:34N 27°56' W 082°27'  
Track history (hours):
 
Tides and Currents Weather Stations Pressure Air Temp Water Temp Dewpoint Dewpoint Depression Visibility Wind Speed Wind Dir Waves Ship Positions

Columbia

Owner: OSG Ship Management Inc., Tampa, FL. More information available from US FCC via Universal Licensing System and Coast Guard Vessel Documentation Center.

Last reported at 2016-Sep-25 00:33 UTC. Time now 2016-Sep-27 10:28 UTC.
Position N 30°07' W 093°20'.

Length 194 m; draft 5.9 m.

Type: Towing. MMSI: 367172440.

Date/timePositionNaut miles runAvg speedWind from/ knotsBaromVisibWave heightAir tempDewpointWater temp
2016-Sep-25 00:33N 30°07' W 093°20'4 1.8
2016-Sep-24 22:31N 30°11' W 093°19'0 0.0
2016-Sep-24 21:31N 30°11' W 093°19'0 0.0
2016-Sep-24 19:31N 30°11' W 093°19'0 0.0
2016-Sep-24 18:31N 30°11' W 093°19'0 0.0
2016-Sep-24 17:31N 30°11' W 093°19'0 0.0
2016-Sep-24 16:31N 30°11' W 093°19'0 0.0
2016-Sep-24 14:31N 30°11' W 093°19'0 0.0
2016-Sep-24 12:31N 30°11' W 093°19'0 0.0
2016-Sep-24 10:31N 30°11' W 093°19'0 0.0
2016-Sep-24 09:31N 30°11' W 093°19'0 0.0
2016-Sep-24 03:31N 30°11' W 093°19'0 0.0
2016-Sep-24 02:31N 30°11' W 093°19'0 0.0
2016-Sep-24 01:31N 30°11' W 093°19'0 0.0
2016-Sep-24 00:31N 30°11' W 093°19'0 0.0
2016-Sep-23 19:33N 30°11' W 093°19'0 0.0
2016-Sep-23 17:33N 30°11' W 093°19'0 0.0
2016-Sep-23 16:33N 30°11' W 093°19'0 0.0
2016-Sep-23 15:33N 30°11' W 093°19'0 0.0
2016-Sep-23 13:30N 30°11' W 093°19'0 0.0
2016-Sep-23 09:33N 30°11' W 093°19'0 0.0
2016-Sep-23 06:33N 30°11' W 093°19'0 0.0
2016-Sep-23 04:33N 30°11' W 093°19'0 0.0
2016-Sep-23 03:33N 30°11' W 093°19'0 0.0
2016-Sep-23 02:33N 30°11' W 093°19'0 0.0
2016-Sep-23 01:33N 30°11' W 093°19'0 0.0
2016-Sep-23 00:30N 30°11' W 093°19'0 0.0
2016-Sep-22 23:33N 30°11' W 093°19'0 0.0
2016-Sep-22 20:33N 30°11' W 093°19'0 0.0
2016-Sep-22 12:30N 30°11' W 093°19'0 0.1
2016-Sep-22 04:33N 30°10' W 093°19'6 5.7
2016-Sep-22 03:33N 30°04' W 093°20'26 1.4
2016-Sep-21 09:33N 29°39' W 093°17'0 0.0
2016-Sep-21 08:33N 29°39' W 093°17'  
2016-Sep-18 01:29N 27°45' W 082°31'8 9.1
2016-Sep-18 00:34N 27°53' W 082°26'4 1.8
2016-Sep-17 22:34N 27°56' W 082°27'0 0.0
2016-Sep-17 21:34N 27°56' W 082°27'0 0.0
2016-Sep-17 20:33N 27°56' W 082°27'0 0.0
2016-Sep-17 19:16N 27°56' W 082°27'0 0.0
2016-Sep-17 13:34N 27°56' W 082°27'1 1.1
2016-Sep-17 12:34N 27°55' W 082°27'0 0.0
2016-Sep-17 10:34N 27°55' W 082°27'0 0.0
2016-Sep-17 09:34N 27°55' W 082°27'0 0.0
2016-Sep-17 08:34N 27°55' W 082°27'0 0.0
2016-Sep-17 07:34N 27°55' W 082°27'0 0.0
2016-Sep-17 05:34N 27°55' W 082°27'0 0.0
2016-Sep-17 04:34N 27°55' W 082°27'0 0.0
2016-Sep-17 00:34N 27°55' W 082°27'0 0.1
2016-Sep-16 17:33N 27°55' W 082°27'1 0.5
2016-Sep-16 15:34N 27°56' W 082°27'0 0.0
2016-Sep-16 12:34N 27°56' W 082°27'0 0.0
2016-Sep-16 09:33N 27°56' W 082°27'0 0.0
2016-Sep-16 07:34N 27°56' W 082°27'0 0.0
2016-Sep-16 03:34N 27°56' W 082°27'0 0.0
2016-Sep-16 02:34N 27°56' W 082°27'0 0.0
2016-Sep-16 00:33N 27°56' W 082°27'0 0.0
2016-Sep-15 22:34N 27°56' W 082°27'0 0.0
2016-Sep-15 21:34N 27°56' W 082°27'0 0.0
2016-Sep-15 20:34N 27°56' W 082°27'0 0.2
2016-Sep-15 18:34N 27°56' W 082°27'  

Dump ship's entire track history